createdAt,value
2023-11-07T00:00:18.162Z,100362.75
2023-11-07T00:02:45.976Z,100354.16
2023-11-07T00:05:13.171Z,100366.38
2023-11-07T00:07:41.207Z,100367.19
2023-11-07T00:10:09.422Z,100365.53
2023-11-07T00:12:38.566Z,100372.75
2023-11-07T00:15:07.234Z,100380.53
2023-11-07T00:17:35.169Z,100384.84
2023-11-07T00:20:05.621Z,100384.13
2023-11-07T00:22:34.315Z,100388.56
2023-11-07T00:25:03.043Z,100389.41
2023-11-07T00:27:30.841Z,100392.19
2023-11-07T00:30:00.516Z,100383.78
2023-11-07T00:32:28.312Z,100390.50
2023-11-07T00:34:56.101Z,100383.44
2023-11-07T00:37:24.454Z,100391.34
2023-11-07T00:39:52.190Z,100385.47
2023-11-07T00:42:20.049Z,100381.84
2023-11-07T00:44:48.788Z,100386.06
2023-11-07T00:47:17.874Z,100387.13
2023-11-07T00:49:46.306Z,100384.63
2023-11-07T00:52:14.312Z,100393.50
2023-11-07T00:54:41.963Z,100397.09
2023-11-07T00:57:10.695Z,100390.41
2023-11-07T00:59:38.544Z,100406.22
2023-11-07T01:02:07.280Z,100404.56
2023-11-07T01:04:36.479Z,100411.25
2023-11-07T01:07:04.977Z,100406.97
2023-11-07T01:09:32.710Z,100404.44
2023-11-07T01:12:00.436Z,100408.03
2023-11-07T01:14:28.201Z,100406.22
2023-11-07T01:16:55.972Z,100410.56
2023-11-07T01:19:24.099Z,100411.25
2023-11-07T01:21:53.258Z,100408.84
2023-11-07T01:24:20.988Z,100403.59
2023-11-07T01:26:48.777Z,100416.53
2023-11-07T01:29:17.950Z,100415.69
2023-11-07T01:31:49.143Z,100432.50
2023-11-07T01:34:17.101Z,100424.59
2023-11-07T01:36:44.923Z,100427.31
2023-11-07T01:39:14.889Z,100438.00
2023-11-07T01:41:43.190Z,100436.19
2023-11-07T01:44:11.752Z,100436.94
2023-11-07T01:46:39.672Z,100440.41
2023-11-07T01:49:09.770Z,100436.94
2023-11-07T01:51:37.989Z,100435.13
2023-11-07T01:54:06.422Z,100424.94
2023-11-07T01:56:35.679Z,100424.81
2023-11-07T01:59:04.330Z,100436.44
2023-11-07T02:01:35.034Z,100441.72
2023-11-07T02:04:04.148Z,100442.31
2023-11-07T02:06:32.022Z,100432.59
2023-11-07T02:08:59.838Z,100433.56
2023-11-07T02:11:30.408Z,100425.19
2023-11-07T02:13:59.617Z,100431.44
2023-11-07T02:16:27.327Z,100438.00
2023-11-07T02:18:55.158Z,100434.53
2023-11-07T02:21:22.885Z,100436.44
2023-11-07T02:23:52.022Z,100441.47
2023-11-07T02:26:19.828Z,100432.59
2023-11-07T02:28:47.704Z,100436.19
2023-11-07T02:31:15.563Z,100435.50
2023-11-07T02:33:43.607Z,100427.94
2023-11-07T02:36:11.842Z,100431.44
2023-11-07T02:38:39.763Z,100427.84
2023-11-07T02:41:08.913Z,100433.13
2023-11-07T02:43:36.604Z,100438.13
2023-11-07T02:46:05.267Z,100423.41
2023-11-07T02:48:34.212Z,100425.91
2023-11-07T02:51:02.031Z,100431.19
2023-11-07T02:53:29.783Z,100424.22
2023-11-07T02:55:57.597Z,100420.91
2023-11-07T02:58:26.733Z,100419.94
2023-11-07T03:00:54.427Z,100427.72
2023-11-07T03:03:22.222Z,100427.00
2023-11-07T03:05:50.454Z,100423.53
2023-11-07T03:08:18.628Z,100428.06
2023-11-07T03:10:46.309Z,100427.38
2023-11-07T03:13:14.581Z,100430.97
2023-11-07T03:15:45.201Z,100423.06
2023-11-07T03:18:12.970Z,100427.63
2023-11-07T03:20:40.904Z,100438.75
2023-11-07T03:23:08.844Z,100438.63
2023-11-07T03:25:36.545Z,100433.34
2023-11-07T03:28:04.306Z,100429.75
2023-11-07T03:30:32.042Z,100439.34
2023-11-07T03:33:01.562Z,100451.66
2023-11-07T03:35:31.157Z,100445.56
2023-11-07T03:37:58.883Z,100453.47
2023-11-07T03:40:26.624Z,100443.88
2023-11-07T03:42:54.832Z,100449.28
2023-11-07T03:45:22.559Z,100444.84
2023-11-07T03:47:50.357Z,100448.59
2023-11-07T03:50:21.141Z,100452.75
2023-11-07T03:52:48.905Z,100438.63
2023-11-07T03:55:16.640Z,100446.78
2023-11-07T03:57:44.375Z,100453.03
2023-11-07T04:00:12.847Z,100447.00
2023-11-07T04:02:41.069Z,100437.34
2023-11-07T04:05:11.850Z,100447.97
2023-11-07T04:07:41.092Z,100445.34
2023-11-07T04:10:09.554Z,100442.69
2023-11-07T04:12:37.316Z,100444.38
2023-11-07T04:15:10.439Z,100459.63
2023-11-07T04:17:38.650Z,100461.91
2023-11-07T04:20:08.940Z,100446.66
2023-11-07T04:22:36.698Z,100455.41
2023-11-07T04:25:07.405Z,100460.81
2023-11-07T04:27:35.904Z,100456.38
2023-11-07T04:30:06.378Z,100456.63
2023-11-07T04:32:35.504Z,100454.09
2023-11-07T04:35:04.087Z,100455.88
2023-11-07T04:37:31.904Z,100461.41
2023-11-07T04:39:59.683Z,100451.09
2023-11-07T04:42:28.830Z,100457.31
2023-11-07T04:44:56.514Z,100450.63
2023-11-07T04:47:25.258Z,100454.22
2023-11-07T04:49:53.171Z,100455.28
2023-11-07T04:52:20.962Z,100451.81
2023-11-07T04:54:48.786Z,100453.38
2023-11-07T04:57:16.808Z,100456.13
2023-11-07T04:59:46.677Z,100445.56
2023-11-07T05:02:14.460Z,100456.25
2023-11-07T05:04:42.212Z,100450.25
2023-11-07T05:07:09.940Z,100461.38
2023-11-07T05:09:37.701Z,100461.16
2023-11-07T05:12:06.522Z,100470.03
2023-11-07T05:14:34.870Z,100470.25
2023-11-07T05:17:04.023Z,100467.41
2023-11-07T05:19:31.775Z,100469.19
2023-11-07T05:21:59.463Z,100472.78
2023-11-07T05:24:27.182Z,100487.38
2023-11-07T05:26:54.934Z,100479.13
2023-11-07T05:29:22.814Z,100481.75
2023-11-07T05:31:50.601Z,100490.41
2023-11-07T05:34:19.689Z,100484.88
2023-11-07T05:36:47.863Z,100479.88
2023-11-07T05:39:17.192Z,100487.53
2023-11-07T05:41:45.385Z,100483.22
2023-11-07T05:44:13.170Z,100482.50
2023-11-07T05:46:40.946Z,100493.75
2023-11-07T05:49:08.908Z,100483.44
2023-11-07T05:51:39.277Z,100495.69
2023-11-07T05:54:08.836Z,100492.09
2023-11-07T05:56:37.103Z,100493.63
2023-11-07T05:59:05.370Z,100497.09
2023-11-07T06:01:33.113Z,100503.13
2023-11-07T06:04:00.973Z,100493.53
2023-11-07T06:06:28.713Z,100492.56
2023-11-07T06:08:58.922Z,100502.16
2023-11-07T06:11:26.689Z,100497.09
2023-11-07T06:13:55.747Z,100496.25
2023-11-07T06:16:23.813Z,100503.47
2023-11-07T06:18:51.562Z,100502.38
2023-11-07T06:21:19.337Z,100504.16
2023-11-07T06:23:47.016Z,100514.63
2023-11-07T06:26:16.099Z,100510.06
2023-11-07T06:28:43.814Z,100511.84
2023-11-07T06:31:11.515Z,100521.56
2023-11-07T06:33:39.396Z,100530.19
2023-11-07T06:36:08.039Z,100527.56
2023-11-07T06:38:35.814Z,100528.50
2023-11-07T06:41:02.506Z,100538.34
2023-11-07T06:43:31.691Z,100532.59
2023-11-07T06:45:59.587Z,100535.94
2023-11-07T06:48:28.305Z,100544.69
2023-11-07T06:50:57.293Z,100543.00
2023-11-07T06:53:25.047Z,100532.59
2023-11-07T06:55:53.508Z,100533.19
2023-11-07T06:58:21.651Z,100551.75
2023-11-07T07:00:50.967Z,100543.50
2023-11-07T07:03:19.063Z,100544.06
2023-11-07T07:05:46.880Z,100546.59
2023-11-07T07:08:14.773Z,100551.28
2023-11-07T07:10:42.513Z,100559.91
2023-11-07T07:13:10.581Z,100558.00
2023-11-07T07:15:39.026Z,100562.31
2023-11-07T07:18:08.292Z,100569.25
2023-11-07T07:20:38.041Z,100569.13
2023-11-07T07:23:07.096Z,100566.38
2023-11-07T07:25:37.507Z,100562.75
2023-11-07T07:28:05.794Z,100562.75
2023-11-07T07:30:33.781Z,100563.84
2023-11-07T07:33:02.915Z,100569.97
2023-11-07T07:35:34.107Z,100566.38
2023-11-07T07:38:04.212Z,100566.38
2023-11-07T07:40:32.723Z,100576.91
2023-11-07T07:43:09.809Z,100573.44
2023-11-07T07:45:38.083Z,100569.72
2023-11-07T07:48:07.806Z,100572.34
2023-11-07T07:50:42.610Z,100568.41
2023-11-07T07:53:11.855Z,100574.28
2023-11-07T07:55:44.431Z,100577.03
2023-11-07T07:58:12.604Z,100583.25
2023-11-07T08:00:44.774Z,100584.84
2023-11-07T08:03:14.261Z,100590.94
2023-11-07T08:05:45.349Z,100583.88
2023-11-07T08:08:16.025Z,100590.09
2023-11-07T08:10:49.030Z,100596.09
2023-11-07T08:13:18.076Z,100596.69
2023-11-07T08:15:45.905Z,100592.38
2023-11-07T08:18:13.834Z,100594.88
2023-11-07T08:20:43.016Z,100597.41
2023-11-07T08:23:11.554Z,100606.75
2023-11-07T08:25:39.324Z,100607.47
2023-11-07T08:28:10.692Z,100598.47
2023-11-07T08:30:39.765Z,100611.78
2023-11-07T08:33:08.471Z,100610.00
2023-11-07T08:35:37.582Z,100607.34
2023-11-07T08:38:06.878Z,100608.06
2023-11-07T08:40:36.258Z,100613.34
2023-11-07T08:43:04.462Z,100613.34
2023-11-07T08:45:33.910Z,100614.44
2023-11-07T08:48:02.274Z,100615.50
2023-11-07T08:50:30.150Z,100615.28
2023-11-07T08:52:59.053Z,100615.28
2023-11-07T08:55:28.336Z,100629.19
2023-11-07T08:57:56.090Z,100623.19
2023-11-07T09:00:24.524Z,100623.91
2023-11-07T09:02:53.409Z,100631.69
2023-11-07T09:05:21.840Z,100628.91
2023-11-07T09:07:49.624Z,100628.69
2023-11-07T09:10:17.739Z,100625.81
2023-11-07T09:12:47.185Z,100635.16
2023-11-07T09:15:15.094Z,100634.19
2023-11-07T09:17:44.588Z,100639.34
2023-11-07T09:20:15.746Z,100647.41
2023-11-07T09:22:44.177Z,100645.47
2023-11-07T09:25:13.122Z,100653.13
2023-11-07T09:27:41.327Z,100659.13
2023-11-07T09:30:12.595Z,100655.53
2023-11-07T09:32:41.638Z,100648.44
2023-11-07T09:35:09.919Z,100654.44
2023-11-07T09:37:41.405Z,100649.66
2023-11-07T09:40:12.045Z,100654.78
2023-11-07T09:42:41.985Z,100646.63
2023-11-07T09:45:15.942Z,100648.19
2023-11-07T09:47:48.506Z,100655.16
2023-11-07T09:50:17.596Z,100650.97
2023-11-07T09:52:46.469Z,100650.69
2023-11-07T09:55:16.931Z,100653.81
2023-11-07T09:57:51.328Z,100660.78
2023-11-07T10:00:23.873Z,100661.47
2023-11-07T10:02:52.072Z,100664.69
2023-11-07T10:05:22.141Z,100655.59
2023-11-07T10:07:50.396Z,100654.47
2023-11-07T10:10:18.414Z,100655.09
2023-11-07T10:12:48.540Z,100656.63
2023-11-07T10:15:18.722Z,100660.44
2023-11-07T10:18:01.285Z,100661.16
2023-11-07T10:20:30.835Z,100664.63
2023-11-07T10:23:00.038Z,100661.63
2023-11-07T10:25:27.728Z,100660.66
2023-11-07T10:27:55.555Z,100655.50
2023-11-07T10:30:23.496Z,100645.78
2023-11-07T10:32:57.063Z,100646.97
2023-11-07T10:35:26.936Z,100648.38
2023-11-07T10:37:54.724Z,100645.63
2023-11-07T10:40:24.104Z,100650.63
2023-11-07T10:42:51.872Z,100644.38
2023-11-07T10:45:22.747Z,100649.53
2023-11-07T10:47:50.883Z,100644.00
2023-11-07T10:50:19.077Z,100646.03
2023-11-07T10:52:50.172Z,100632.19
2023-11-07T10:55:18.079Z,100645.59
2023-11-07T10:57:51.107Z,100638.00
2023-11-07T11:00:21.961Z,100630.63
2023-11-07T11:02:54.542Z,100642.38
2023-11-07T11:05:24.693Z,100641.84
2023-11-07T11:07:54.669Z,100642.16
2023-11-07T11:10:28.748Z,100633.25
2023-11-07T11:12:57.423Z,100643.00
2023-11-07T11:15:25.810Z,100637.97
2023-11-07T11:17:59.143Z,100639.06
2023-11-07T11:20:35.929Z,100646.31
2023-11-07T11:23:14.881Z,100643.06
2023-11-07T11:25:58.835Z,100639.03
2023-11-07T11:28:39.129Z,100643.19
2023-11-07T11:31:09.463Z,100641.53
2023-11-07T11:33:37.800Z,100635.97
2023-11-07T11:36:33.814Z,100635.97
2023-11-07T11:39:06.039Z,100642.38
2023-11-07T11:41:56.997Z,100646.13
2023-11-07T11:44:25.777Z,100652.38
2023-11-07T11:46:54.047Z,100649.00
2023-11-07T11:49:23.373Z,100638.00
2023-11-07T11:51:54.465Z,100640.69
2023-11-07T11:54:56.580Z,100641.03
2023-11-07T11:57:24.327Z,100636.28
2023-11-07T11:59:54.299Z,100632.56
2023-11-07T12:02:40.834Z,100637.59
2023-11-07T12:05:31.152Z,100643.00
2023-11-07T12:08:34.779Z,100640.50
2023-11-07T12:11:05.294Z,100643.72
2023-11-07T12:13:33.536Z,100639.13
2023-11-07T12:16:15.439Z,100639.00
2023-11-07T12:18:43.959Z,100625.19
2023-11-07T12:21:11.856Z,100637.44
2023-11-07T12:23:39.775Z,100640.78
2023-11-07T12:26:10.018Z,100642.50
2023-11-07T12:28:44.504Z,100635.25
2023-11-07T12:31:22.982Z,100632.34
2023-11-07T12:33:53.512Z,100639.28
2023-11-07T12:36:22.222Z,100634.41
2023-11-07T12:38:50.448Z,100637.75
2023-11-07T12:41:19.908Z,100642.91
2023-11-07T12:43:47.861Z,100639.72
2023-11-07T12:46:17.885Z,100641.75
2023-11-07T12:48:46.129Z,100625.34
2023-11-07T12:51:22.216Z,100636.03
2023-11-07T12:53:50.740Z,100637.72
2023-11-07T12:56:23.117Z,100632.44
2023-11-07T12:58:50.860Z,100641.19
2023-11-07T14:10:14.410Z,100648.25
2023-11-07T14:12:42.661Z,100655.91
2023-11-07T14:15:15.064Z,100655.84
2023-11-07T14:17:43.547Z,100665.25
2023-11-07T14:20:14.483Z,100660.28
2023-11-07T14:22:42.712Z,100662.91
2023-11-07T14:25:13.591Z,100661.94
2023-11-07T14:27:41.914Z,100662.81
2023-11-07T14:30:27.218Z,100659.91
2023-11-07T14:33:02.756Z,100655.44
2023-11-07T14:35:30.643Z,100661.44
2023-11-07T14:37:59.156Z,100659.75
2023-11-07T14:40:30.754Z,100662.25
2023-11-07T14:42:59.210Z,100664.81
2023-11-07T14:45:27.306Z,100656.13
2023-11-07T14:47:55.184Z,100661.69
2023-11-07T14:50:23.593Z,100663.66
2023-11-07T14:52:51.336Z,100661.94
2023-11-07T14:55:20.920Z,100668.22
2023-11-07T14:57:50.665Z,100664.88
2023-11-07T15:00:27.327Z,100666.69
2023-11-07T15:02:58.118Z,100655.53
2023-11-07T15:05:27.325Z,100655.53
2023-11-07T15:07:55.312Z,100657.44
2023-11-07T15:10:24.766Z,100667.47
2023-11-07T15:12:54.061Z,100663.16
2023-11-07T15:15:21.999Z,100674.69
2023-11-07T15:17:49.908Z,100664.22
2023-11-07T15:20:18.495Z,100665.19
2023-11-07T15:22:46.558Z,100667.00
2023-11-07T15:25:14.574Z,100667.97
2023-11-07T15:27:43.432Z,100667.13
2023-11-07T15:30:14.084Z,100665.47
2023-11-07T15:32:42.843Z,100666.25
2023-11-07T15:35:11.928Z,100670.69
2023-11-07T15:37:39.928Z,100672.59
2023-11-07T15:40:11.618Z,100674.56
2023-11-07T15:42:39.356Z,100678.28
2023-11-07T15:45:09.487Z,100676.34
2023-11-07T15:47:41.150Z,100677.31
2023-11-07T15:50:15.206Z,100679.25
2023-11-07T15:52:51.758Z,100670.88
2023-11-07T15:55:29.575Z,100670.38
2023-11-07T15:57:57.494Z,100674.69
2023-11-07T16:00:27.341Z,100679.03
2023-11-07T16:02:56.894Z,100676.63
2023-11-07T16:05:28.064Z,100688.31
2023-11-07T16:07:56.484Z,100678.81
2023-11-07T16:10:24.894Z,100688.66
2023-11-07T16:12:53.072Z,100693.97
2023-11-07T16:15:20.788Z,100691.31
2023-11-07T16:17:50.000Z,100700.22
2023-11-07T16:20:23.065Z,100700.47
2023-11-07T16:22:50.838Z,100703.13
2023-11-07T16:25:19.764Z,100703.47
2023-11-07T16:27:48.150Z,100707.09
2023-11-07T16:30:18.552Z,100706.25
2023-11-07T16:32:47.922Z,100709.88
2023-11-07T16:35:16.278Z,100708.19
2023-11-07T16:37:45.460Z,100703.75
2023-11-07T16:40:16.028Z,100702.91
2023-11-07T16:42:43.773Z,100700.00
2023-11-07T16:45:15.087Z,100700.00
2023-11-07T16:47:44.489Z,100699.53
2023-11-07T16:50:13.569Z,100694.25
2023-11-07T16:52:41.982Z,100693.53
2023-11-07T16:55:14.636Z,100693.91
2023-11-07T16:57:43.677Z,100699.19
2023-11-07T17:00:12.872Z,100704.47
2023-11-07T17:02:42.151Z,100702.22
2023-11-07T17:05:11.175Z,100702.59
2023-11-07T17:07:39.161Z,100696.00
2023-11-07T17:10:08.169Z,100710.06
2023-11-07T17:12:37.692Z,100697.91
2023-11-07T17:15:08.207Z,100697.34
2023-11-07T17:17:36.089Z,100695.06
2023-11-07T17:20:06.994Z,100705.63
2023-11-07T17:22:36.920Z,100691.34
2023-11-07T17:25:05.804Z,100700.59
2023-11-07T17:29:17.901Z,100701.34
2023-11-07T17:31:45.662Z,100703.25
2023-11-07T17:34:13.996Z,100700.50
2023-11-07T17:36:41.796Z,100700.59
2023-11-07T17:39:16.259Z,100706.84
2023-11-07T17:41:45.628Z,100702.53
2023-11-07T17:44:15.354Z,100708.78
2023-11-07T17:47:12.175Z,100699.19
2023-11-07T17:49:39.902Z,100705.66
2023-11-07T17:52:07.869Z,100695.84
2023-11-07T17:54:37.032Z,100700.38
2023-11-07T17:57:04.928Z,100703.16
2023-11-07T17:59:32.666Z,100695.09
2023-11-07T18:02:00.577Z,100695.09
2023-11-07T18:04:29.754Z,100696.06
2023-11-07T18:06:57.445Z,100696.31
2023-11-07T18:09:25.225Z,100701.59
2023-11-07T18:11:53.118Z,100698.22
2023-11-07T18:14:23.304Z,100695.56
2023-11-07T18:16:51.101Z,100687.19
2023-11-07T18:19:19.046Z,100695.00
2023-11-07T18:21:48.324Z,100692.47
2023-11-07T18:24:16.873Z,100693.31
2023-11-07T18:26:47.504Z,100690.06
2023-11-07T18:29:15.507Z,100701.13
2023-11-07T18:31:43.359Z,100690.81
2023-11-07T18:34:20.562Z,100699.34
2023-11-07T18:37:02.895Z,100698.25
2023-11-07T18:39:32.121Z,100701.84
2023-11-07T18:42:00.613Z,100695.84
2023-11-07T18:44:31.967Z,100709.03
2023-11-07T18:47:00.749Z,100696.06
2023-11-07T18:49:29.572Z,100708.31
2023-11-07T18:51:57.345Z,100704.00
2023-11-07T18:54:28.313Z,100704.00
2023-11-07T18:56:57.822Z,100700.91
2023-11-07T18:59:34.033Z,100703.03
2023-11-07T19:02:06.246Z,100710.00
2023-11-07T19:04:34.700Z,100716.34
2023-11-07T19:07:03.375Z,100718.25
2023-11-07T19:09:32.624Z,100727.00
2023-11-07T19:12:02.283Z,100723.53
2023-11-07T19:14:30.389Z,100724.38
2023-11-07T19:16:58.282Z,100722.47
2023-11-07T19:19:28.175Z,100725.25
2023-11-07T19:21:57.060Z,100724.63
2023-11-07T19:24:24.928Z,100724.63
2023-11-07T19:26:54.096Z,100732.53
2023-11-07T19:29:21.743Z,100726.53
2023-11-07T19:31:50.391Z,100729.78
2023-11-07T19:34:20.868Z,100730.72
2023-11-07T19:36:48.893Z,100729.06
2023-11-07T19:39:16.804Z,100728.22
2023-11-07T19:41:44.536Z,100715.63
2023-11-07T19:44:14.627Z,100723.88
2023-11-07T19:46:42.428Z,100726.50
2023-11-07T19:49:10.986Z,100724.63
2023-11-07T19:51:41.067Z,100730.59
2023-11-07T19:54:09.879Z,100724.84
2023-11-07T19:56:38.901Z,100728.56
2023-11-07T19:59:08.304Z,100732.53
2023-11-07T20:01:38.350Z,100734.22
2023-11-07T20:04:06.610Z,100736.84
2023-11-07T20:06:34.551Z,100735.03
2023-11-07T20:09:02.486Z,100735.03
2023-11-07T20:11:30.753Z,100735.88
2023-11-07T20:13:59.262Z,100728.94
2023-11-07T20:16:28.548Z,100740.06
2023-11-07T20:18:57.819Z,100722.06
2023-11-07T20:21:25.701Z,100733.47
2023-11-07T20:23:54.530Z,100742.34
2023-11-07T20:26:22.310Z,100733.72
2023-11-07T20:28:51.156Z,100742.72
2023-11-07T20:31:19.111Z,100739.34
2023-11-07T20:33:50.078Z,100740.06
2023-11-07T20:36:20.698Z,100746.91
2023-11-07T20:38:49.185Z,100736.34
2023-11-07T20:41:17.159Z,100745.09
2023-11-07T20:43:44.958Z,100741.63
2023-11-07T20:46:27.065Z,100740.91
2023-11-07T20:49:02.730Z,100751.59
2023-11-07T20:51:32.932Z,100746.53
2023-11-07T20:54:00.726Z,100743.03
2023-11-07T20:56:30.520Z,100750.13
2023-11-07T20:58:58.899Z,100731.66
2023-11-07T21:01:27.403Z,100748.09
2023-11-07T21:03:56.803Z,100754.94
2023-11-07T21:06:25.713Z,100745.47
2023-11-07T21:08:55.365Z,100745.34
2023-11-07T21:11:23.265Z,100750.50
2023-11-07T21:13:51.795Z,100747.03
2023-11-07T21:16:19.723Z,100743.53
2023-11-07T21:18:48.487Z,100745.81
2023-11-07T21:21:16.700Z,100744.75
2023-11-07T21:23:44.527Z,100737.19
2023-11-07T21:26:14.803Z,100747.97
2023-11-07T21:28:42.580Z,100735.97
2023-11-07T21:31:10.372Z,100747.16
2023-11-07T21:33:39.946Z,100748.81
2023-11-07T21:36:08.042Z,100739.22
2023-11-07T21:38:36.009Z,100743.75
2023-11-07T21:41:03.913Z,100749.03
2023-11-07T21:43:33.167Z,100750.00
2023-11-07T21:46:01.491Z,100754.31
2023-11-07T21:48:30.036Z,100755.19
2023-11-07T21:50:57.845Z,100748.81
2023-11-07T21:53:25.671Z,100749.66
2023-11-07T21:55:54.585Z,100742.72
2023-11-07T21:58:22.609Z,100752.41
2023-11-07T22:00:51.833Z,100744.38
2023-11-07T22:03:19.672Z,100744.38
2023-11-07T22:05:47.420Z,100743.28
2023-11-07T22:08:15.395Z,100741.63
2023-11-07T22:10:43.148Z,100740.91
2023-11-07T22:13:10.868Z,100741.13
2023-11-07T22:15:38.784Z,100739.56
2023-11-07T22:18:09.922Z,100740.28
2023-11-07T22:20:39.285Z,100737.91
2023-11-07T22:23:07.113Z,100742.22
2023-11-07T22:25:34.925Z,100750.97
2023-11-07T22:28:02.661Z,100750.13
2023-11-07T22:30:30.491Z,100756.47
2023-11-07T22:32:58.442Z,100757.53
2023-11-07T22:35:30.112Z,100761.97
2023-11-07T22:37:58.076Z,100763.88
2023-11-07T22:40:25.878Z,100764.34
2023-11-07T22:42:53.632Z,100771.06
2023-11-07T22:45:21.537Z,100773.72
2023-11-07T22:47:49.361Z,100779.09
2023-11-07T22:50:17.246Z,100769.84
2023-11-07T22:52:46.941Z,100780.16
2023-11-07T22:55:15.652Z,100785.44
2023-11-07T22:57:44.666Z,100786.28
2023-11-07T23:00:16.978Z,100785.69
2023-11-07T23:02:45.224Z,100789.25
2023-11-07T23:05:13.233Z,100782.28
2023-11-07T23:07:41.168Z,100789.25
2023-11-07T23:10:10.962Z,100791.16
2023-11-07T23:12:38.987Z,100789.25
2023-11-07T23:15:08.419Z,100785.69
2023-11-07T23:17:37.371Z,100777.84
2023-11-07T23:20:07.842Z,100780.59
2023-11-07T23:22:35.706Z,100784.19
2023-11-07T23:25:04.081Z,100772.78
2023-11-07T23:27:33.268Z,100772.06
2023-11-07T23:30:02.279Z,100777.59
2023-11-07T23:32:29.992Z,100766.22
2023-11-07T23:34:57.672Z,100780.22
2023-11-07T23:37:25.506Z,100779.38
2023-11-07T23:39:53.170Z,100781.06
2023-11-07T23:42:20.932Z,100784.66
2023-11-07T23:44:50.312Z,100787.38
2023-11-07T23:47:18.082Z,100783.91
2023-11-07T23:49:46.737Z,100791.09
2023-11-07T23:52:14.933Z,100784.25
2023-11-07T23:54:42.694Z,100775.41
2023-11-07T23:57:10.449Z,100785.94
2023-11-07T23:59:38.136Z,100789.09
